sensor_id;sensor_type;location;lat;lon;timestamp;temperature;humidity
29341;DHT22;16337;59.536;13.468;2022-10-16T00:01:57;9.90;99.90
29341;DHT22;16337;59.536;13.468;2022-10-16T00:04:22;9.90;99.90
29341;DHT22;16337;59.536;13.468;2022-10-16T00:06:48;9.80;99.90
29341;DHT22;16337;59.536;13.468;2022-10-16T00:09:14;9.80;99.90
29341;DHT22;16337;59.536;13.468;2022-10-16T00:11:40;9.70;99.90
29341;DHT22;16337;59.536;13.468;2022-10-16T00:14:09;9.70;99.90
29341;DHT22;16337;59.536;13.468;2022-10-16T00:16:36;9.70;99.90
29341;DHT22;16337;59.536;13.468;2022-10-16T00:19:02;9.70;99.90
29341;DHT22;16337;59.536;13.468;2022-10-16T00:21:30;9.70;99.90
29341;DHT22;16337;59.536;13.468;2022-10-16T00:23:58;9.60;99.90
29341;DHT22;16337;59.536;13.468;2022-10-16T00:26:25;9.60;99.90
29341;DHT22;16337;59.536;13.468;2022-10-16T00:28:52;9.60;99.90
29341;DHT22;16337;59.536;13.468;2022-10-16T00:31:19;9.50;99.90
29341;DHT22;16337;59.536;13.468;2022-10-16T00:33:46;9.50;99.90
29341;DHT22;16337;59.536;13.468;2022-10-16T00:36:14;9.50;99.90
29341;DHT22;16337;59.536;13.468;2022-10-16T00:38:40;9.50;99.90
29341;DHT22;16337;59.536;13.468;2022-10-16T00:41:09;9.40;99.90
29341;DHT22;16337;59.536;13.468;2022-10-16T00:43:45;9.40;99.90
29341;DHT22;16337;59.536;13.468;2022-10-16T00:51:27;9.40;99.90
29341;DHT22;16337;59.536;13.468;2022-10-16T00:53:54;9.30;99.90
29341;DHT22;16337;59.536;13.468;2022-10-16T00:56:20;9.30;99.90
29341;DHT22;16337;59.536;13.468;2022-10-16T00:58:46;9.30;99.90
29341;DHT22;16337;59.536;13.468;2022-10-16T01:01:12;9.30;99.90
29341;DHT22;16337;59.536;13.468;2022-10-16T01:03:38;9.30;99.90
29341;DHT22;16337;59.536;13.468;2022-10-16T01:14:42;9.10;99.90
29341;DHT22;16337;59.536;13.468;2022-10-16T01:17:15;9.10;99.90
29341;DHT22;16337;59.536;13.468;2022-10-16T01:23:06;9.00;99.90
29341;DHT22;16337;59.536;13.468;2022-10-16T01:25:39;8.90;99.90
29341;DHT22;16337;59.536;13.468;2022-10-16T01:28:11;8.80;99.90
29341;DHT22;16337;59.536;13.468;2022-10-16T01:30:40;8.70;99.90
29341;DHT22;16337;59.536;13.468;2022-10-16T01:33:16;8.70;99.90
29341;DHT22;16337;59.536;13.468;2022-10-16T01:35:46;8.60;99.90
29341;DHT22;16337;59.536;13.468;2022-10-16T01:40:49;8.50;99.90
29341;DHT22;16337;59.536;13.468;2022-10-16T01:43:21;8.60;99.90
29341;DHT22;16337;59.536;13.468;2022-10-16T01:45:48;8.50;99.90
29341;DHT22;16337;59.536;13.468;2022-10-16T01:48:18;8.50;99.90
29341;DHT22;16337;59.536;13.468;2022-10-16T01:50:52;8.50;99.90
29341;DHT22;16337;59.536;13.468;2022-10-16T01:53:19;8.50;99.90
29341;DHT22;16337;59.536;13.468;2022-10-16T01:55:47;8.60;99.90
29341;DHT22;16337;59.536;13.468;2022-10-16T01:58:14;8.60;99.90
29341;DHT22;16337;59.536;13.468;2022-10-16T02:00:42;8.60;99.90
29341;DHT22;16337;59.536;13.468;2022-10-16T02:03:10;8.60;99.90
29341;DHT22;16337;59.536;13.468;2022-10-16T02:05:47;8.70;99.90
29341;DHT22;16337;59.536;13.468;2022-10-16T02:08:15;8.80;99.90
29341;DHT22;16337;59.536;13.468;2022-10-16T02:10:41;8.80;99.90
29341;DHT22;16337;59.536;13.468;2022-10-16T02:13:13;8.90;99.90
29341;DHT22;16337;59.536;13.468;2022-10-16T02:15:41;8.90;99.90
29341;DHT22;16337;59.536;13.468;2022-10-16T02:18:07;9.00;99.90
29341;DHT22;16337;59.536;13.468;2022-10-16T02:20:49;9.10;99.90
29341;DHT22;16337;59.536;13.468;2022-10-16T02:23:29;9.00;99.90
29341;DHT22;16337;59.536;13.468;2022-10-16T02:25:59;9.10;99.90
29341;DHT22;16337;59.536;13.468;2022-10-16T02:28:42;9.10;99.90
29341;DHT22;16337;59.536;13.468;2022-10-16T02:31:12;9.10;99.90
29341;DHT22;16337;59.536;13.468;2022-10-16T02:33:40;9.00;99.90
29341;DHT22;16337;59.536;13.468;2022-10-16T02:36:08;9.00;99.90
29341;DHT22;16337;59.536;13.468;2022-10-16T02:38:34;8.90;99.90
29341;DHT22;16337;59.536;13.468;2022-10-16T02:41:02;8.80;99.90
29341;DHT22;16337;59.536;13.468;2022-10-16T02:43:28;8.80;99.90
29341;DHT22;16337;59.536;13.468;2022-10-16T02:45:54;8.80;99.90
29341;DHT22;16337;59.536;13.468;2022-10-16T02:48:20;8.70;99.90
29341;DHT22;16337;59.536;13.468;2022-10-16T02:50:46;8.60;99.90
29341;DHT22;16337;59.536;13.468;2022-10-16T02:53:11;8.60;99.90
29341;DHT22;16337;59.536;13.468;2022-10-16T02:55:37;8.60;99.90
29341;DHT22;16337;59.536;13.468;2022-10-16T02:58:03;8.60;99.90
29341;DHT22;16337;59.536;13.468;2022-10-16T03:00:28;8.60;99.90
29341;DHT22;16337;59.536;13.468;2022-10-16T03:02:54;8.60;99.90
29341;DHT22;16337;59.536;13.468;2022-10-16T03:05:19;8.50;99.90
29341;DHT22;16337;59.536;13.468;2022-10-16T03:07:45;8.50;99.90
29341;DHT22;16337;59.536;13.468;2022-10-16T03:10:11;8.50;99.90
29341;DHT22;16337;59.536;13.468;2022-10-16T03:12:36;8.50;99.90
29341;DHT22;16337;59.536;13.468;2022-10-16T03:15:03;8.50;99.90
29341;DHT22;16337;59.536;13.468;2022-10-16T03:17:29;8.60;99.90
29341;DHT22;16337;59.536;13.468;2022-10-16T03:19:54;8.60;99.90
29341;DHT22;16337;59.536;13.468;2022-10-16T03:22:20;8.70;99.90
29341;DHT22;16337;59.536;13.468;2022-10-16T03:24:45;8.70;99.90
29341;DHT22;16337;59.536;13.468;2022-10-16T03:27:11;8.70;99.90
29341;DHT22;16337;59.536;13.468;2022-10-16T03:29:37;8.70;99.90
29341;DHT22;16337;59.536;13.468;2022-10-16T03:32:02;8.70;99.90
29341;DHT22;16337;59.536;13.468;2022-10-16T03:34:28;8.70;99.90
29341;DHT22;16337;59.536;13.468;2022-10-16T03:36:54;8.80;99.90
29341;DHT22;16337;59.536;13.468;2022-10-16T03:39:19;8.80;99.90
29341;DHT22;16337;59.536;13.468;2022-10-16T03:41:45;8.80;99.90
29341;DHT22;16337;59.536;13.468;2022-10-16T03:44:12;8.80;99.90
29341;DHT22;16337;59.536;13.468;2022-10-16T03:46:38;8.80;99.90
29341;DHT22;16337;59.536;13.468;2022-10-16T03:49:03;8.80;99.90
29341;DHT22;16337;59.536;13.468;2022-10-16T03:51:29;8.90;99.90
29341;DHT22;16337;59.536;13.468;2022-10-16T03:53:55;8.80;99.90
29341;DHT22;16337;59.536;13.468;2022-10-16T03:56:20;8.70;99.90
29341;DHT22;16337;59.536;13.468;2022-10-16T03:58:46;8.60;99.90
29341;DHT22;16337;59.536;13.468;2022-10-16T04:01:12;8.50;99.90
29341;DHT22;16337;59.536;13.468;2022-10-16T04:03:37;8.40;99.90
29341;DHT22;16337;59.536;13.468;2022-10-16T04:06:03;8.20;99.90
29341;DHT22;16337;59.536;13.468;2022-10-16T04:08:29;8.10;99.90
29341;DHT22;16337;59.536;13.468;2022-10-16T04:10:54;8.00;99.90
29341;DHT22;16337;59.536;13.468;2022-10-16T04:13:20;7.90;99.90
29341;DHT22;16337;59.536;13.468;2022-10-16T04:15:46;7.70;99.90
29341;DHT22;16337;59.536;13.468;2022-10-16T04:18:11;7.60;99.90
29341;DHT22;16337;59.536;13.468;2022-10-16T04:20:37;7.50;99.90
29341;DHT22;16337;59.536;13.468;2022-10-16T04:23:03;7.40;99.90
29341;DHT22;16337;59.536;13.468;2022-10-16T04:25:30;7.30;99.90
29341;DHT22;16337;59.536;13.468;2022-10-16T04:27:56;7.20;99.90
29341;DHT22;16337;59.536;13.468;2022-10-16T04:30:22;7.20;99.90
29341;DHT22;16337;59.536;13.468;2022-10-16T04:32:51;7.10;99.90
29341;DHT22;16337;59.536;13.468;2022-10-16T04:35:18;7.00;99.90
29341;DHT22;16337;59.536;13.468;2022-10-16T04:37:44;7.00;99.90
29341;DHT22;16337;59.536;13.468;2022-10-16T04:40:10;7.00;99.90
29341;DHT22;16337;59.536;13.468;2022-10-16T04:42:36;6.90;99.90
29341;DHT22;16337;59.536;13.468;2022-10-16T04:45:03;6.90;99.90
29341;DHT22;16337;59.536;13.468;2022-10-16T04:47:28;6.90;99.90
29341;DHT22;16337;59.536;13.468;2022-10-16T04:49:54;6.80;99.90
29341;DHT22;16337;59.536;13.468;2022-10-16T04:52:20;6.70;99.90
29341;DHT22;16337;59.536;13.468;2022-10-16T04:54:46;6.60;99.90
29341;DHT22;16337;59.536;13.468;2022-10-16T04:57:12;6.60;99.90
29341;DHT22;16337;59.536;13.468;2022-10-16T04:59:38;6.60;99.90
29341;DHT22;16337;59.536;13.468;2022-10-16T05:02:04;6.50;99.90
29341;DHT22;16337;59.536;13.468;2022-10-16T05:04:29;6.70;99.90
29341;DHT22;16337;59.536;13.468;2022-10-16T05:06:55;6.90;99.90
29341;DHT22;16337;59.536;13.468;2022-10-16T05:09:20;7.10;99.90
29341;DHT22;16337;59.536;13.468;2022-10-16T05:11:46;7.10;99.90
29341;DHT22;16337;59.536;13.468;2022-10-16T05:14:12;7.10;99.90
29341;DHT22;16337;59.536;13.468;2022-10-16T05:16:37;7.20;99.90
29341;DHT22;16337;59.536;13.468;2022-10-16T05:19:03;7.30;99.90
29341;DHT22;16337;59.536;13.468;2022-10-16T05:21:29;7.20;99.90
29341;DHT22;16337;59.536;13.468;2022-10-16T05:23:54;7.30;99.90
29341;DHT22;16337;59.536;13.468;2022-10-16T05:26:20;7.40;99.90
29341;DHT22;16337;59.536;13.468;2022-10-16T05:28:46;7.40;99.90
29341;DHT22;16337;59.536;13.468;2022-10-16T05:31:12;7.50;99.90
29341;DHT22;16337;59.536;13.468;2022-10-16T05:33:37;7.40;99.90
29341;DHT22;16337;59.536;13.468;2022-10-16T05:36:08;7.30;99.90
29341;DHT22;16337;59.536;13.468;2022-10-16T05:38:37;7.10;99.90
29341;DHT22;16337;59.536;13.468;2022-10-16T05:41:04;7.00;99.90
29341;DHT22;16337;59.536;13.468;2022-10-16T05:43:31;6.90;99.90
29341;DHT22;16337;59.536;13.468;2022-10-16T05:45:58;6.80;99.90
29341;DHT22;16337;59.536;13.468;2022-10-16T05:48:24;6.60;99.90
29341;DHT22;16337;59.536;13.468;2022-10-16T05:53:23;6.50;99.90
29341;DHT22;16337;59.536;13.468;2022-10-16T05:55:54;6.60;99.90
29341;DHT22;16337;59.536;13.468;2022-10-16T05:58:21;6.70;99.90
29341;DHT22;16337;59.536;13.468;2022-10-16T06:01:01;6.70;99.90
29341;DHT22;16337;59.536;13.468;2022-10-16T06:03:27;6.60;99.90
29341;DHT22;16337;59.536;13.468;2022-10-16T06:05:53;6.60;99.90
29341;DHT22;16337;59.536;13.468;2022-10-16T06:08:20;6.50;99.90
29341;DHT22;16337;59.536;13.468;2022-10-16T06:10:46;6.60;99.90
29341;DHT22;16337;59.536;13.468;2022-10-16T06:13:13;6.70;99.90
29341;DHT22;16337;59.536;13.468;2022-10-16T06:15:40;6.80;99.90
29341;DHT22;16337;59.536;13.468;2022-10-16T06:18:10;6.90;99.90
29341;DHT22;16337;59.536;13.468;2022-10-16T06:20:37;7.00;99.90
29341;DHT22;16337;59.536;13.468;2022-10-16T06:23:03;7.10;99.90
29341;DHT22;16337;59.536;13.468;2022-10-16T06:25:30;7.20;99.90
29341;DHT22;16337;59.536;13.468;2022-10-16T06:27:56;7.10;99.90
29341;DHT22;16337;59.536;13.468;2022-10-16T06:30:22;7.20;99.90
29341;DHT22;16337;59.536;13.468;2022-10-16T06:32:48;7.20;99.90
29341;DHT22;16337;59.536;13.468;2022-10-16T06:35:13;7.20;99.90
29341;DHT22;16337;59.536;13.468;2022-10-16T06:37:39;7.10;99.90
29341;DHT22;16337;59.536;13.468;2022-10-16T06:40:05;7.10;99.90
29341;DHT22;16337;59.536;13.468;2022-10-16T06:42:31;7.10;99.90
29341;DHT22;16337;59.536;13.468;2022-10-16T06:44:56;7.30;99.90
29341;DHT22;16337;59.536;13.468;2022-10-16T06:47:22;7.50;99.90
29341;DHT22;16337;59.536;13.468;2022-10-16T06:49:48;7.50;99.90
29341;DHT22;16337;59.536;13.468;2022-10-16T06:52:13;7.60;99.90
29341;DHT22;16337;59.536;13.468;2022-10-16T06:54:39;7.70;99.90
29341;DHT22;16337;59.536;13.468;2022-10-16T06:57:04;7.80;99.90
29341;DHT22;16337;59.536;13.468;2022-10-16T06:59:30;7.80;99.90
29341;DHT22;16337;59.536;13.468;2022-10-16T07:01:56;7.90;99.90
29341;DHT22;16337;59.536;13.468;2022-10-16T07:04:21;8.00;99.90
29341;DHT22;16337;59.536;13.468;2022-10-16T07:06:47;8.00;99.90
29341;DHT22;16337;59.536;13.468;2022-10-16T07:09:12;8.00;99.90
29341;DHT22;16337;59.536;13.468;2022-10-16T07:11:39;8.20;99.90
29341;DHT22;16337;59.536;13.468;2022-10-16T07:14:10;8.30;99.90
29341;DHT22;16337;59.536;13.468;2022-10-16T07:16:38;8.30;99.90
29341;DHT22;16337;59.536;13.468;2022-10-16T07:19:03;8.40;99.90
29341;DHT22;16337;59.536;13.468;2022-10-16T07:21:31;8.50;99.90
29341;DHT22;16337;59.536;13.468;2022-10-16T07:24:00;8.60;99.90
29341;DHT22;16337;59.536;13.468;2022-10-16T07:26:28;8.60;99.90
29341;DHT22;16337;59.536;13.468;2022-10-16T07:28:53;8.60;99.90
29341;DHT22;16337;59.536;13.468;2022-10-16T07:31:20;8.80;99.90
29341;DHT22;16337;59.536;13.468;2022-10-16T07:33:47;9.00;99.90
29341;DHT22;16337;59.536;13.468;2022-10-16T07:36:15;9.20;99.90
29341;DHT22;16337;59.536;13.468;2022-10-16T07:38:41;9.50;99.90
29341;DHT22;16337;59.536;13.468;2022-10-16T07:41:11;9.70;99.90
29341;DHT22;16337;59.536;13.468;2022-10-16T07:43:38;9.90;99.90
29341;DHT22;16337;59.536;13.468;2022-10-16T07:46:03;9.90;99.90
29341;DHT22;16337;59.536;13.468;2022-10-16T07:48:31;10.10;99.90
29341;DHT22;16337;59.536;13.468;2022-10-16T07:51:04;10.20;99.90
29341;DHT22;16337;59.536;13.468;2022-10-16T07:53:31;10.30;99.90
29341;DHT22;16337;59.536;13.468;2022-10-16T07:56:07;10.40;99.90
29341;DHT22;16337;59.536;13.468;2022-10-16T07:58:33;10.60;99.90
29341;DHT22;16337;59.536;13.468;2022-10-16T08:01:03;10.60;99.90
29341;DHT22;16337;59.536;13.468;2022-10-16T08:03:29;10.70;99.90
29341;DHT22;16337;59.536;13.468;2022-10-16T08:05:57;10.60;99.90
29341;DHT22;16337;59.536;13.468;2022-10-16T08:08:22;10.50;99.90
29341;DHT22;16337;59.536;13.468;2022-10-16T08:10:48;10.50;99.90
29341;DHT22;16337;59.536;13.468;2022-10-16T08:13:14;10.50;99.90
29341;DHT22;16337;59.536;13.468;2022-10-16T08:15:43;10.40;99.90
29341;DHT22;16337;59.536;13.468;2022-10-16T08:18:12;10.30;99.90
29341;DHT22;16337;59.536;13.468;2022-10-16T08:20:38;10.30;99.90
29341;DHT22;16337;59.536;13.468;2022-10-16T08:23:04;10.30;99.90
29341;DHT22;16337;59.536;13.468;2022-10-16T08:25:30;10.60;99.90
29341;DHT22;16337;59.536;13.468;2022-10-16T08:27:56;10.70;99.90
29341;DHT22;16337;59.536;13.468;2022-10-16T08:30:23;10.80;99.90
29341;DHT22;16337;59.536;13.468;2022-10-16T08:32:49;10.90;99.90
29341;DHT22;16337;59.536;13.468;2022-10-16T08:35:15;11.00;99.90
29341;DHT22;16337;59.536;13.468;2022-10-16T08:37:41;11.30;99.90
29341;DHT22;16337;59.536;13.468;2022-10-16T08:40:27;11.50;99.90
29341;DHT22;16337;59.536;13.468;2022-10-16T08:51:22;11.70;99.90
29341;DHT22;16337;59.536;13.468;2022-10-16T08:53:56;11.60;99.90
29341;DHT22;16337;59.536;13.468;2022-10-16T08:56:23;11.60;99.90
29341;DHT22;16337;59.536;13.468;2022-10-16T08:58:50;11.60;99.90
29341;DHT22;16337;59.536;13.468;2022-10-16T09:01:19;11.70;99.90
29341;DHT22;16337;59.536;13.468;2022-10-16T09:04:13;11.70;99.90
29341;DHT22;16337;59.536;13.468;2022-10-16T09:06:52;11.80;99.90
29341;DHT22;16337;59.536;13.468;2022-10-16T09:12:31;11.90;99.90
29341;DHT22;16337;59.536;13.468;2022-10-16T09:15:07;11.70;99.90
29341;DHT22;16337;59.536;13.468;2022-10-16T09:20:53;11.80;99.90
29341;DHT22;16337;59.536;13.468;2022-10-16T09:23:31;12.00;99.90
29341;DHT22;16337;59.536;13.468;2022-10-16T09:25:59;11.90;99.90
29341;DHT22;16337;59.536;13.468;2022-10-16T09:28:26;12.00;99.90
29341;DHT22;16337;59.536;13.468;2022-10-16T09:30:51;12.20;99.90
29341;DHT22;16337;59.536;13.468;2022-10-16T09:33:20;12.20;99.90
29341;DHT22;16337;59.536;13.468;2022-10-16T09:35:50;12.40;99.90
29341;DHT22;16337;59.536;13.468;2022-10-16T09:41:01;12.50;99.90
29341;DHT22;16337;59.536;13.468;2022-10-16T09:43:40;12.80;99.90
29341;DHT22;16337;59.536;13.468;2022-10-16T09:46:08;13.00;99.90
29341;DHT22;16337;59.536;13.468;2022-10-16T09:48:43;12.80;99.90
29341;DHT22;16337;59.536;13.468;2022-10-16T09:51:22;12.60;99.90
29341;DHT22;16337;59.536;13.468;2022-10-16T09:53:53;12.50;99.90
29341;DHT22;16337;59.536;13.468;2022-10-16T09:56:28;12.30;99.90
29341;DHT22;16337;59.536;13.468;2022-10-16T09:58:57;12.20;99.90
29341;DHT22;16337;59.536;13.468;2022-10-16T10:01:30;12.00;99.90
29341;DHT22;16337;59.536;13.468;2022-10-16T10:03:57;12.10;99.90
29341;DHT22;16337;59.536;13.468;2022-10-16T10:06:37;12.20;99.90
29341;DHT22;16337;59.536;13.468;2022-10-16T10:09:16;12.20;99.90
29341;DHT22;16337;59.536;13.468;2022-10-16T10:14:26;12.10;99.90
29341;DHT22;16337;59.536;13.468;2022-10-16T10:19:48;11.80;99.90
29341;DHT22;16337;59.536;13.468;2022-10-16T10:30:28;11.80;99.90
29341;DHT22;16337;59.536;13.468;2022-10-16T10:46:51;11.70;99.90
29341;DHT22;16337;59.536;13.468;2022-10-16T10:49:48;11.50;99.90
29341;DHT22;16337;59.536;13.468;2022-10-16T10:55:39;11.30;99.90
29341;DHT22;16337;59.536;13.468;2022-10-16T11:08:39;11.10;99.90
29341;DHT22;16337;59.536;13.468;2022-10-16T11:11:25;11.20;99.90
29341;DHT22;16337;59.536;13.468;2022-10-16T11:16:41;11.20;99.90
29341;DHT22;16337;59.536;13.468;2022-10-16T11:22:24;11.30;99.90
29341;DHT22;16337;59.536;13.468;2022-10-16T11:27:27;11.30;99.90
29341;DHT22;16337;59.536;13.468;2022-10-16T11:29:59;11.20;99.90
29341;DHT22;16337;59.536;13.468;2022-10-16T11:32:40;11.20;99.90
29341;DHT22;16337;59.536;13.468;2022-10-16T11:35:55;11.10;99.90
29341;DHT22;16337;59.536;13.468;2022-10-16T11:38:27;11.00;99.90
29341;DHT22;16337;59.536;13.468;2022-10-16T11:40:58;10.90;99.90
29341;DHT22;16337;59.536;13.468;2022-10-16T11:46:40;10.70;99.90
29341;DHT22;16337;59.536;13.468;2022-10-16T11:49:18;10.60;99.90
29341;DHT22;16337;59.536;13.468;2022-10-16T11:57:07;10.50;99.90
29341;DHT22;16337;59.536;13.468;2022-10-16T11:59:47;10.50;99.90
29341;DHT22;16337;59.536;13.468;2022-10-16T12:05:16;10.40;99.90
29341;DHT22;16337;59.536;13.468;2022-10-16T12:08:07;10.40;99.90
29341;DHT22;16337;59.536;13.468;2022-10-16T12:10:34;10.40;99.90
29341;DHT22;16337;59.536;13.468;2022-10-16T12:16:06;10.40;99.90
29341;DHT22;16337;59.536;13.468;2022-10-16T12:18:32;10.40;99.90
29341;DHT22;16337;59.536;13.468;2022-10-16T12:20:59;10.40;99.90
29341;DHT22;16337;59.536;13.468;2022-10-16T12:23:30;10.50;99.90
29341;DHT22;16337;59.536;13.468;2022-10-16T12:26:00;10.50;99.90
29341;DHT22;16337;59.536;13.468;2022-10-16T12:28:31;10.60;99.90
29341;DHT22;16337;59.536;13.468;2022-10-16T12:33:25;10.80;99.90
29341;DHT22;16337;59.536;13.468;2022-10-16T12:35:52;11.20;99.90
29341;DHT22;16337;59.536;13.468;2022-10-16T12:41:07;12.20;99.90
29341;DHT22;16337;59.536;13.468;2022-10-16T12:43:47;12.70;99.90
29341;DHT22;16337;59.536;13.468;2022-10-16T12:48:43;13.00;99.90
29341;DHT22;16337;59.536;13.468;2022-10-16T12:54:02;13.20;99.90
29341;DHT22;16337;59.536;13.468;2022-10-16T12:56:47;12.90;99.90
29341;DHT22;16337;59.536;13.468;2022-10-16T13:07:26;12.00;99.90
29341;DHT22;16337;59.536;13.468;2022-10-16T13:18:16;11.50;99.90
29341;DHT22;16337;59.536;13.468;2022-10-16T13:21:01;11.50;99.90
29341;DHT22;16337;59.536;13.468;2022-10-16T13:23:46;11.40;99.90
29341;DHT22;16337;59.536;13.468;2022-10-16T13:29:01;11.40;99.90
29341;DHT22;16337;59.536;13.468;2022-10-16T13:31:28;11.30;99.90
29341;DHT22;16337;59.536;13.468;2022-10-16T13:33:56;11.30;99.90
29341;DHT22;16337;59.536;13.468;2022-10-16T13:36:29;11.10;99.90
29341;DHT22;16337;59.536;13.468;2022-10-16T13:39:20;11.10;99.90
29341;DHT22;16337;59.536;13.468;2022-10-16T13:42:01;10.90;99.90
29341;DHT22;16337;59.536;13.468;2022-10-16T13:44:41;10.80;99.90
29341;DHT22;16337;59.536;13.468;2022-10-16T13:47:38;10.70;99.90
29341;DHT22;16337;59.536;13.468;2022-10-16T13:50:12;10.50;99.90
29341;DHT22;16337;59.536;13.468;2022-10-16T13:52:38;10.40;99.90
29341;DHT22;16337;59.536;13.468;2022-10-16T13:55:14;10.20;99.90
29341;DHT22;16337;59.536;13.468;2022-10-16T13:57:41;10.20;99.90
29341;DHT22;16337;59.536;13.468;2022-10-16T14:00:22;10.10;99.90
29341;DHT22;16337;59.536;13.468;2022-10-16T14:03:12;10.00;99.90
29341;DHT22;16337;59.536;13.468;2022-10-16T14:05:53;9.90;99.90
29341;DHT22;16337;59.536;13.468;2022-10-16T14:08:20;9.90;99.90
29341;DHT22;16337;59.536;13.468;2022-10-16T14:10:52;9.90;99.90
29341;DHT22;16337;59.536;13.468;2022-10-16T14:13:28;9.80;99.90
29341;DHT22;16337;59.536;13.468;2022-10-16T14:15:55;9.80;99.90
29341;DHT22;16337;59.536;13.468;2022-10-16T14:18:25;9.80;99.90
29341;DHT22;16337;59.536;13.468;2022-10-16T14:20:52;9.90;99.90
29341;DHT22;16337;59.536;13.468;2022-10-16T14:23:23;9.90;99.90
29341;DHT22;16337;59.536;13.468;2022-10-16T14:25:49;9.90;99.90
29341;DHT22;16337;59.536;13.468;2022-10-16T14:28:22;9.80;99.90
29341;DHT22;16337;59.536;13.468;2022-10-16T14:30:57;9.80;99.90
29341;DHT22;16337;59.536;13.468;2022-10-16T14:38:29;9.70;99.90
29341;DHT22;16337;59.536;13.468;2022-10-16T14:40:57;9.60;99.90
29341;DHT22;16337;59.536;13.468;2022-10-16T14:43:35;9.50;99.90
29341;DHT22;16337;59.536;13.468;2022-10-16T14:46:03;9.50;99.90
29341;DHT22;16337;59.536;13.468;2022-10-16T14:48:32;9.50;99.90
29341;DHT22;16337;59.536;13.468;2022-10-16T14:50:57;9.50;99.90
29341;DHT22;16337;59.536;13.468;2022-10-16T14:53:23;9.50;99.90
29341;DHT22;16337;59.536;13.468;2022-10-16T14:55:49;9.50;99.90
29341;DHT22;16337;59.536;13.468;2022-10-16T14:58:17;9.50;99.90
29341;DHT22;16337;59.536;13.468;2022-10-16T15:00:44;9.50;99.90
29341;DHT22;16337;59.536;13.468;2022-10-16T15:03:10;9.40;99.90
29341;DHT22;16337;59.536;13.468;2022-10-16T15:05:36;9.40;99.90
29341;DHT22;16337;59.536;13.468;2022-10-16T15:08:01;9.30;99.90
29341;DHT22;16337;59.536;13.468;2022-10-16T15:10:28;9.30;99.90
29341;DHT22;16337;59.536;13.468;2022-10-16T15:12:55;9.20;99.90
29341;DHT22;16337;59.536;13.468;2022-10-16T15:17:53;9.20;99.90
29341;DHT22;16337;59.536;13.468;2022-10-16T15:20:23;9.10;99.90
29341;DHT22;16337;59.536;13.468;2022-10-16T15:22:49;9.00;99.90
29341;DHT22;16337;59.536;13.468;2022-10-16T15:25:35;9.00;99.90
29341;DHT22;16337;59.536;13.468;2022-10-16T15:28:03;9.00;99.90
29341;DHT22;16337;59.536;13.468;2022-10-16T15:30:29;8.90;99.90
29341;DHT22;16337;59.536;13.468;2022-10-16T15:32:55;8.80;99.90
29341;DHT22;16337;59.536;13.468;2022-10-16T15:35:20;8.80;99.90
29341;DHT22;16337;59.536;13.468;2022-10-16T15:37:47;8.80;99.90
29341;DHT22;16337;59.536;13.468;2022-10-16T15:40:14;8.70;99.90
29341;DHT22;16337;59.536;13.468;2022-10-16T15:42:39;8.70;99.90
29341;DHT22;16337;59.536;13.468;2022-10-16T15:45:05;8.70;99.90
29341;DHT22;16337;59.536;13.468;2022-10-16T15:47:32;8.70;99.90
29341;DHT22;16337;59.536;13.468;2022-10-16T15:49:57;8.70;99.90
29341;DHT22;16337;59.536;13.468;2022-10-16T15:52:23;8.60;99.90
29341;DHT22;16337;59.536;13.468;2022-10-16T15:54:49;8.60;99.90
29341;DHT22;16337;59.536;13.468;2022-10-16T15:57:15;8.50;99.90
29341;DHT22;16337;59.536;13.468;2022-10-16T15:59:40;8.50;99.90
29341;DHT22;16337;59.536;13.468;2022-10-16T16:02:08;8.50;99.90
29341;DHT22;16337;59.536;13.468;2022-10-16T16:04:34;8.50;99.90
29341;DHT22;16337;59.536;13.468;2022-10-16T16:07:00;8.40;99.90
29341;DHT22;16337;59.536;13.468;2022-10-16T16:09:28;8.40;99.90
29341;DHT22;16337;59.536;13.468;2022-10-16T16:11:54;8.40;99.90
29341;DHT22;16337;59.536;13.468;2022-10-16T16:14:20;8.20;99.90
29341;DHT22;16337;59.536;13.468;2022-10-16T16:16:46;8.20;99.90
29341;DHT22;16337;59.536;13.468;2022-10-16T16:19:11;8.10;99.90
29341;DHT22;16337;59.536;13.468;2022-10-16T16:21:38;8.10;99.90
29341;DHT22;16337;59.536;13.468;2022-10-16T16:24:03;8.10;99.90
29341;DHT22;16337;59.536;13.468;2022-10-16T16:26:34;8.00;99.90
29341;DHT22;16337;59.536;13.468;2022-10-16T16:29:03;8.00;99.90
29341;DHT22;16337;59.536;13.468;2022-10-16T16:31:30;8.00;99.90
29341;DHT22;16337;59.536;13.468;2022-10-16T16:33:57;8.00;99.90
29341;DHT22;16337;59.536;13.468;2022-10-16T16:36:23;7.90;99.90
29341;DHT22;16337;59.536;13.468;2022-10-16T16:38:49;7.90;99.90
29341;DHT22;16337;59.536;13.468;2022-10-16T16:41:18;7.90;99.90
29341;DHT22;16337;59.536;13.468;2022-10-16T16:43:45;7.80;99.90
29341;DHT22;16337;59.536;13.468;2022-10-16T16:46:11;7.80;99.90
29341;DHT22;16337;59.536;13.468;2022-10-16T16:48:37;7.70;99.90
29341;DHT22;16337;59.536;13.468;2022-10-16T16:51:12;7.70;99.90
29341;DHT22;16337;59.536;13.468;2022-10-16T16:53:46;7.70;99.90
29341;DHT22;16337;59.536;13.468;2022-10-16T16:56:13;7.70;99.90
29341;DHT22;16337;59.536;13.468;2022-10-16T16:58:39;7.70;99.90
29341;DHT22;16337;59.536;13.468;2022-10-16T17:01:05;7.70;99.90
29341;DHT22;16337;59.536;13.468;2022-10-16T17:03:33;7.60;99.90
29341;DHT22;16337;59.536;13.468;2022-10-16T17:06:03;7.60;99.90
29341;DHT22;16337;59.536;13.468;2022-10-16T17:08:30;7.50;99.90
29341;DHT22;16337;59.536;13.468;2022-10-16T17:10:56;7.50;99.90
29341;DHT22;16337;59.536;13.468;2022-10-16T17:13:24;7.50;99.90
29341;DHT22;16337;59.536;13.468;2022-10-16T17:15:50;7.50;99.90
29341;DHT22;16337;59.536;13.468;2022-10-16T17:18:17;7.40;99.90
29341;DHT22;16337;59.536;13.468;2022-10-16T17:20:42;7.40;99.90
29341;DHT22;16337;59.536;13.468;2022-10-16T17:23:12;7.30;99.90
29341;DHT22;16337;59.536;13.468;2022-10-16T17:25:39;7.30;99.90
29341;DHT22;16337;59.536;13.468;2022-10-16T17:28:05;7.30;99.90
29341;DHT22;16337;59.536;13.468;2022-10-16T17:30:32;7.20;99.90
29341;DHT22;16337;59.536;13.468;2022-10-16T17:33:01;7.10;99.90
29341;DHT22;16337;59.536;13.468;2022-10-16T17:35:27;7.00;99.90
29341;DHT22;16337;59.536;13.468;2022-10-16T17:37:53;7.00;99.90
29341;DHT22;16337;59.536;13.468;2022-10-16T17:40:19;6.90;99.90
29341;DHT22;16337;59.536;13.468;2022-10-16T17:42:45;6.90;99.90
29341;DHT22;16337;59.536;13.468;2022-10-16T17:45:13;6.80;99.90
29341;DHT22;16337;59.536;13.468;2022-10-16T17:47:39;6.70;99.90
29341;DHT22;16337;59.536;13.468;2022-10-16T17:50:07;6.60;99.90
29341;DHT22;16337;59.536;13.468;2022-10-16T17:52:33;6.40;99.90
29341;DHT22;16337;59.536;13.468;2022-10-16T17:54:58;6.30;99.90
29341;DHT22;16337;59.536;13.468;2022-10-16T17:57:24;6.20;99.90
29341;DHT22;16337;59.536;13.468;2022-10-16T17:59:50;6.10;99.90